Time;durP1;ratioP1;P1;durP2;ratioP2;P2;SDS_P1;SDS_P2;PMS_P1;PMS_P2;Temp;Humidity;BMP_temperature;BMP_pressure;BME280_temperature;BME280_humidity;BME280_pressure;Samples;Min_cycle;Max_cycle;Signal;HPM_P1;HPM_P2
2023/05/28 00:00:10;;;;;;;;;;;;;;;15.79;47.54;100919.84;4963342;28;7086;-74
2023/05/28 00:02:37;;;;;;;;;;;;;;;15.75;47.79;100915.41;4954638;28;6799;-74
2023/05/28 00:05:04;;;;;;;;;;;;;;;15.70;47.67;100917.84;4986047;28;6826;-74
2023/05/28 00:07:30;;;;;;;;;;;;;;;15.63;48.14;100914.13;4959924;28;7295;-74
2023/05/28 00:09:57;;;;;;;;;;;;;;;15.60;47.86;100913.16;4980571;28;7385;-74
2023/05/28 00:12:24;;;;;;;;;;;;;;;15.55;48.22;100905.25;4955714;28;6803;-76
2023/05/28 00:14:50;;;;;;;;;;;;;;;15.49;48.59;100907.59;4990012;28;6939;-74
2023/05/28 00:17:16;;;;;;;;;;;;;;;15.44;48.81;100904.84;4955456;28;6812;-74
2023/05/28 00:19:43;;;;;;;;;;;;;;;15.40;48.98;100901.28;4989378;28;6772;-75
2023/05/28 00:22:09;;;;;;;;;;;;;;;15.37;48.35;100905.44;4991247;28;6784;-76
2023/05/28 00:24:35;;;;;;;;;;;;;;;15.33;48.91;100903.59;4962841;28;6800;-74
2023/05/28 00:27:02;;;;;;;;;;;;;;;15.30;48.89;100901.78;4972655;28;8200;-74
2023/05/28 00:29:29;;;;;;;;;;;;;;;15.25;48.95;100904.19;4989529;28;6815;-74
2023/05/28 00:31:56;;;;;;;;;;;;;;;15.22;48.99;100895.44;4988806;28;7146;-74
2023/05/28 00:34:22;;;;;;;;;;;;;;;15.18;49.18;100898.75;4987458;28;6784;-74
2023/05/28 00:36:48;;;;;;;;;;;;;;;15.16;49.23;100900.38;4978967;28;7201;-76
2023/05/28 00:39:18;;;;;;;;;;;;;;;15.13;49.86;100898.56;4962182;28;6840;-74
2023/05/28 00:41:44;;;;;;;;;;;;;;;15.10;49.61;100890.69;4991500;28;6974;-74
2023/05/28 00:44:10;;;;;;;;;;;;;;;15.06;49.67;100894.84;4988637;28;7093;-75
2023/05/28 00:46:40;;;;;;;;;;;;;;;15.04;49.52;100893.94;4957472;28;7232;-75
2023/05/28 00:49:05;;;;;;;;;;;;;;;15.01;50.05;100893.81;4974844;28;6968;-76
2023/05/28 00:51:32;;;;;;;;;;;;;;;14.97;49.96;100885.06;4958334;28;6847;-74
2023/05/28 00:53:58;;;;;;;;;;;;;;;14.92;49.66;100890.91;4986626;28;7248;-74
2023/05/28 00:56:24;;;;;;;;;;;;;;;14.88;50.03;100889.91;4958549;28;7311;-74
2023/05/28 00:58:51;;;;;;;;;;;;;;;14.83;50.02;100886.28;4959926;28;6919;-74
2023/05/28 01:01:17;;;;;;;;;;;;;;;14.78;50.10;100880.94;4959975;28;6960;-74
2023/05/28 01:03:43;;;;;;;;;;;;;;;14.75;50.56;100880.78;4989867;28;7268;-74
2023/05/28 01:06:14;;;;;;;;;;;;;;;14.70;50.13;100879.72;4991648;28;7966;-74
2023/05/28 01:08:41;;;;;;;;;;;;;;;14.67;50.41;100884.75;4958089;28;11156;-74
2023/05/28 01:11:13;;;;;;;;;;;;;;;14.65;51.32;100891.56;4987315;28;8422;-74
2023/05/28 01:13:41;;;;;;;;;;;;;;;14.63;51.20;100878.63;4983246;28;7256;-74
2023/05/28 01:16:06;;;;;;;;;;;;;;;14.61;50.76;100881.94;4959634;28;7057;-75
2023/05/28 01:18:32;;;;;;;;;;;;;;;14.59;50.94;100881.88;4989073;28;6776;-74
2023/05/28 01:21:02;;;;;;;;;;;;;;;14.57;51.22;100889.53;4989601;28;6795;-74
2023/05/28 01:23:32;;;;;;;;;;;;;;;14.55;50.95;100890.31;4971485;28;6875;-74
2023/05/28 01:25:59;;;;;;;;;;;;;;;14.53;51.54;100891.94;4958524;28;7335;-74
2023/05/28 01:28:25;;;;;;;;;;;;;;;14.50;51.95;100887.56;4958551;28;6808;-74
2023/05/28 01:30:52;;;;;;;;;;;;;;;14.48;51.38;100891.75;4956420;28;6959;-74
2023/05/28 01:33:21;;;;;;;;;;;;;;;14.44;51.80;100888.19;4962652;28;6842;-74
2023/05/28 01:35:47;;;;;;;;;;;;;;;14.42;51.59;100881.22;4945398;28;6999;-75
2023/05/28 01:38:17;;;;;;;;;;;;;;;14.39;51.94;100883.66;4957199;28;7097;-74
2023/05/28 01:40:46;;;;;;;;;;;;;;;14.36;51.78;100883.53;4958646;28;6799;-74
2023/05/28 01:43:12;;;;;;;;;;;;;;;14.34;52.06;100882.59;4956767;28;6982;-75
2023/05/28 01:45:39;;;;;;;;;;;;;;;14.33;52.21;100878.25;4968011;28;7043;-75
2023/05/28 01:48:06;;;;;;;;;;;;;;;14.32;52.47;100877.38;4953320;28;6990;-75
2023/05/28 01:50:32;;;;;;;;;;;;;;;14.34;52.98;100864.56;4956920;28;6788;-75
2023/05/28 01:52:59;;;;;;;;;;;;;;;14.36;53.30;100862.91;4981957;28;6986;-75
2023/05/28 01:55:25;;;;;;;;;;;;;;;14.38;52.94;100858.69;4990107;28;7044;-74
2023/05/28 01:57:51;;;;;;;;;;;;;;;14.38;53.12;100861.25;4957974;28;8915;-74
2023/05/28 02:00:17;;;;;;;;;;;;;;;14.37;52.67;100862.09;4987578;28;6855;-74
2023/05/28 02:02:43;;;;;;;;;;;;;;;14.33;52.68;100858.50;4956123;28;6811;-72
2023/05/28 02:05:09;;;;;;;;;;;;;;;14.29;52.35;100857.53;4977896;28;7150;-71
2023/05/28 02:07:35;;;;;;;;;;;;;;;14.25;52.96;100863.34;4989509;28;6934;-72
2023/05/28 02:10:01;;;;;;;;;;;;;;;14.20;52.94;100851.09;4981695;28;6772;-72
2023/05/28 02:12:28;;;;;;;;;;;;;;;14.14;52.80;100847.44;4987178;28;6768;-72
2023/05/28 02:14:53;;;;;;;;;;;;;;;14.11;52.62;100855.06;4939341;28;6968;-72
2023/05/28 02:17:19;;;;;;;;;;;;;;;14.08;53.06;100851.47;4950723;28;6930;-73
2023/05/28 02:19:45;;;;;;;;;;;;;;;14.05;53.16;100853.94;4986389;28;7233;-72
2023/05/28 02:22:11;;;;;;;;;;;;;;;14.01;52.51;100850.34;4960064;28;6784;-72
2023/05/28 02:24:41;;;;;;;;;;;;;;;13.98;53.18;100856.25;4958354;28;9344;-72
2023/05/28 02:27:07;;;;;;;;;;;;;;;13.95;52.60;100856.13;4955397;28;6860;-73
2023/05/28 02:29:34;;;;;;;;;;;;;;;13.91;53.00;100851.69;4979216;28;7016;-72
2023/05/28 02:32:00;;;;;;;;;;;;;;;13.85;52.80;100852.28;4954401;28;7078;-74
2023/05/28 02:34:28;;;;;;;;;;;;;;;13.83;52.74;100860.78;4960293;28;6808;-73
2023/05/28 02:36:55;;;;;;;;;;;;;;;13.78;53.04;100851.97;4979063;28;6968;-73
2023/05/28 02:39:22;;;;;;;;;;;;;;;13.74;53.36;100848.38;4958441;28;6788;-72
2023/05/28 02:41:48;;;;;;;;;;;;;;;13.70;52.58;100855.09;4991333;28;6800;-72
2023/05/28 02:44:14;;;;;;;;;;;;;;;13.67;53.73;100848.97;4985092;28;6944;-72
2023/05/28 02:46:40;;;;;;;;;;;;;;;13.63;53.64;100852.19;4973970;28;6986;-72
2023/05/28 02:49:06;;;;;;;;;;;;;;;13.58;53.57;100857.16;4964319;28;7014;-72
2023/05/28 02:51:31;;;;;;;;;;;;;;;13.54;53.00;100855.28;4977968;28;6780;-72
2023/05/28 02:53:57;;;;;;;;;;;;;;;13.50;53.24;100863.66;4970888;28;6780;-73
2023/05/28 02:56:23;;;;;;;;;;;;;;;13.47;53.46;100864.41;4976801;28;7224;-72
2023/05/28 02:58:48;;;;;;;;;;;;;;;13.46;53.33;100865.22;4960126;28;7110;-74
2023/05/28 03:01:14;;;;;;;;;;;;;;;13.45;54.26;100861.78;4954764;28;7011;-74
2023/05/28 03:03:40;;;;;;;;;;;;;;;13.44;53.21;100869.41;4952465;28;7075;-71
2023/05/28 03:06:07;;;;;;;;;;;;;;;13.42;53.23;100868.47;4946906;28;7009;-74
2023/05/28 03:08:32;;;;;;;;;;;;;;;13.38;53.82;100864.88;4989714;28;6928;-71
2023/05/28 03:10:58;;;;;;;;;;;;;;;13.37;53.66;100873.41;4957653;28;6807;-72
2023/05/28 03:13:23;;;;;;;;;;;;;;;13.34;53.71;100874.13;4992268;28;6788;-73
2023/05/28 03:15:49;;;;;;;;;;;;;;;13.33;54.38;100880.09;4976130;28;6974;-72
2023/05/28 03:18:15;;;;;;;;;;;;;;;13.33;53.93;100874.09;4935352;28;7217;-73
2023/05/28 03:20:41;;;;;;;;;;;;;;;13.33;54.28;100876.66;4963049;28;8512;-73
2023/05/28 03:23:06;;;;;;;;;;;;;;;13.33;54.79;100884.41;4985597;28;7217;-73
2023/05/28 03:25:32;;;;;;;;;;;;;;;13.32;54.45;100885.19;4966317;28;6968;-73
2023/05/28 03:27:57;;;;;;;;;;;;;;;13.32;54.45;100887.75;4956610;28;6776;-74
2023/05/28 03:30:23;;;;;;;;;;;;;;;13.30;54.50;100887.69;4992247;28;6788;-73
2023/05/28 03:32:50;;;;;;;;;;;;;;;13.29;54.42;100888.53;4953713;28;6776;-72
2023/05/28 03:35:16;;;;;;;;;;;;;;;13.27;54.61;100879.81;4991244;28;6817;-74
2023/05/28 03:37:41;;;;;;;;;;;;;;;13.25;55.14;100885.75;4991052;28;6784;-73
2023/05/28 03:40:08;;;;;;;;;;;;;;;13.23;54.62;100887.34;4974608;28;7151;-72
2023/05/28 03:42:35;;;;;;;;;;;;;;;13.21;54.82;100884.72;4983252;28;7143;-74
2023/05/28 03:45:01;;;;;;;;;;;;;;;13.20;54.59;100880.38;4958312;28;6987;-73
2023/05/28 03:47:27;;;;;;;;;;;;;;;13.20;55.00;100886.41;4960897;28;6784;-71
2023/05/28 03:49:52;;;;;;;;;;;;;;;13.22;55.11;100886.47;4961541;28;6799;-73
2023/05/28 03:52:18;;;;;;;;;;;;;;;13.20;55.34;100886.41;4962136;28;6796;-72
2023/05/28 03:54:44;;;;;;;;;;;;;;;13.23;55.21;100897.63;4966629;28;6847;-73
2023/05/28 03:57:10;;;;;;;;;;;;;;;13.24;54.62;100887.41;4944132;28;7234;-71
2023/05/28 03:59:36;;;;;;;;;;;;;;;13.26;54.68;100887.50;4975424;28;8103;-72
2023/05/28 04:02:02;;;;;;;;;;;;;;;13.29;55.61;100879.91;4977225;28;6962;-72
2023/05/28 04:04:27;;;;;;;;;;;;;;;13.34;55.74;100873.28;4992583;28;6776;-71
2023/05/28 04:06:53;;;;;;;;;;;;;;;13.39;55.78;100874.34;4988572;28;6792;-74
2023/05/28 04:09:19;;;;;;;;;;;;;;;13.44;56.14;100875.47;4960668;28;6780;-72
2023/05/28 04:11:44;;;;;;;;;;;;;;;13.50;55.64;100877.44;4961208;28;6811;-72
2023/05/28 04:14:10;;;;;;;;;;;;;;;13.55;56.26;100878.50;4978732;28;8542;-72
2023/05/28 04:16:35;;;;;;;;;;;;;;;13.61;56.35;100865.91;4972011;28;6772;-72
2023/05/28 04:19:01;;;;;;;;;;;;;;;13.70;56.12;100873.13;4942583;28;6996;-74
2023/05/28 04:21:28;;;;;;;;;;;;;;;13.90;57.14;100878.25;4934220;28;6992;-72
2023/05/28 04:23:55;;;;;;;;;;;;;;;14.13;56.95;100875.75;4988266;28;7092;-73
2023/05/28 04:26:22;;;;;;;;;;;;;;;14.40;57.11;100875.97;4963976;28;7010;-72
2023/05/28 04:28:52;;;;;;;;;;;;;;;14.68;57.38;100873.63;4968941;28;7145;-71
2023/05/28 04:31:18;;;;;;;;;;;;;;;14.95;57.75;100873.81;4946755;28;6871;-72
2023/05/28 04:33:47;;;;;;;;;;;;;;;15.24;57.20;100874.03;4967852;28;7404;-72
2023/05/28 04:36:13;;;;;;;;;;;;;;;15.55;57.20;100876.84;4956142;28;7459;-72
2023/05/28 04:38:40;;;;;;;;;;;;;;;15.83;56.51;100870.00;4984249;28;7330;-71
2023/05/28 04:41:06;;;;;;;;;;;;;;;16.10;56.41;100869.22;4957026;28;6796;-73
2023/05/28 04:43:33;;;;;;;;;;;;;;;16.36;56.10;100882.13;4987129;28;8790;-73
2023/05/28 04:46:00;;;;;;;;;;;;;;;16.64;55.59;100877.81;4950252;28;6967;-72
2023/05/28 04:48:26;;;;;;;;;;;;;;;16.96;55.52;100885.66;4976300;28;7058;-75
2023/05/28 04:50:53;;;;;;;;;;;;;;;17.30;55.56;100890.97;4958309;28;7404;-73
2023/05/28 04:53:19;;;;;;;;;;;;;;;17.63;54.88;100893.59;4954349;28;7063;-74
2023/05/28 04:55:45;;;;;;;;;;;;;;;17.95;53.89;100897.88;4987964;28;6795;-72
2023/05/28 04:58:10;;;;;;;;;;;;;;;18.23;52.78;100900.31;4986920;28;6988;-73
2023/05/28 05:00:36;;;;;;;;;;;;;;;18.49;52.52;100897.47;4953724;28;7063;-73
2023/05/28 05:03:02;;;;;;;;;;;;;;;18.76;52.35;100906.75;4989252;28;6977;-72
2023/05/28 05:05:28;;;;;;;;;;;;;;;19.04;52.24;100905.63;4974137;28;7079;-71
2023/05/28 05:07:53;;;;;;;;;;;;;;;19.29;51.36;100906.16;4991064;28;6841;-73
2023/05/28 05:10:19;;;;;;;;;;;;;;;19.49;50.23;100906.53;4958776;28;6910;-72
2023/05/28 05:12:45;;;;;;;;;;;;;;;19.69;50.14;100900.81;4971013;28;7207;-73
2023/05/28 05:15:11;;;;;;;;;;;;;;;19.88;49.59;100894.25;4952503;28;6796;-72
2023/05/28 05:17:36;;;;;;;;;;;;;;;20.09;49.13;100901.59;4985601;28;6779;-72
2023/05/28 05:20:07;;;;;;;;;;;;;;;20.35;49.39;100901.09;4958726;28;7109;-71
2023/05/28 05:22:32;;;;;;;;;;;;;;;20.65;49.11;100893.75;4955361;28;7139;-72
2023/05/28 05:24:58;;;;;;;;;;;;;;;20.91;47.70;100888.91;4956505;28;7123;-70
2023/05/28 05:27:24;;;;;;;;;;;;;;;21.14;47.20;100887.47;4983953;28;6772;-73
2023/05/28 05:29:49;;;;;;;;;;;;;;;21.34;46.96;100892.88;4985361;28;8051;-70
2023/05/28 05:32:15;;;;;;;;;;;;;;;21.54;47.14;100900.09;4946302;28;7486;-73
2023/05/28 05:34:41;;;;;;;;;;;;;;;21.75;46.40;100897.72;4983357;28;6811;-74
2023/05/28 05:37:06;;;;;;;;;;;;;;;21.97;45.68;100897.91;4969790;28;6988;-72
2023/05/28 05:39:32;;;;;;;;;;;;;;;22.09;45.04;100893.63;4954096;28;6772;-72
2023/05/28 05:41:59;;;;;;;;;;;;;;;22.12;43.99;100891.09;4984396;28;7174;-72
2023/05/28 05:44:25;;;;;;;;;;;;;;;22.10;43.67;100898.00;4975711;28;8752;-72
2023/05/28 05:46:51;;;;;;;;;;;;;;;22.02;43.44;100906.66;4972090;28;7067;-73
2023/05/28 05:49:16;;;;;;;;;;;;;;;21.89;42.72;100907.41;4949076;28;6953;-71
2023/05/28 05:51:42;;;;;;;;;;;;;;;21.68;42.99;100911.56;4953157;28;6748;-71
2023/05/28 05:54:07;;;;;;;;;;;;;;;21.41;42.61;100926.00;4968412;28;7058;-72
2023/05/28 05:56:34;;;;;;;;;;;;;;;21.08;42.75;100920.38;4977527;28;7135;-73
2023/05/28 05:59:00;;;;;;;;;;;;;;;20.74;42.89;100935.53;4967838;28;7209;-71
2023/05/28 06:01:26;;;;;;;;;;;;;;;20.39;43.17;100935.88;4984142;28;7129;-72
2023/05/28 06:03:52;;;;;;;;;;;;;;;20.10;43.66;100938.88;4982359;28;7343;-74
2023/05/28 06:06:17;;;;;;;;;;;;;;;19.84;43.98;100942.72;4970509;28;7003;-72
2023/05/28 06:08:43;;;;;;;;;;;;;;;19.63;44.07;100921.53;4985342;28;6942;-74
2023/05/28 06:11:09;;;;;;;;;;;;;;;19.44;44.17;100921.19;4961546;28;6768;-77
2023/05/28 06:13:36;;;;;;;;;;;;;;;19.31;44.45;100929.56;4964676;28;7279;-72
2023/05/28 06:16:06;;;;;;;;;;;;;;;19.22;44.88;100925.94;4972776;28;6781;-72
2023/05/28 06:18:32;;;;;;;;;;;;;;;19.18;45.35;100937.09;4989017;28;6811;-72
2023/05/28 06:20:58;;;;;;;;;;;;;;;19.17;45.41;100934.47;4974648;28;7055;-73
2023/05/28 06:23:24;;;;;;;;;;;;;;;19.12;45.34;100939.56;4965477;28;8533;-73
2023/05/28 06:25:50;;;;;;;;;;;;;;;19.10;45.59;100931.75;4960458;28;7193;-73
2023/05/28 06:28:15;;;;;;;;;;;;;;;19.13;45.81;100926.63;4992654;28;8095;-74
2023/05/28 06:30:41;;;;;;;;;;;;;;;19.15;45.52;100926.66;4961565;28;6772;-73
2023/05/28 06:33:07;;;;;;;;;;;;;;;19.18;45.76;100924.13;4957022;28;7347;-73
2023/05/28 06:35:34;;;;;;;;;;;;;;;19.23;45.71;100932.91;4956843;28;8583;-73
2023/05/28 06:38:00;;;;;;;;;;;;;;;19.27;46.36;100928.66;4973381;28;7246;-73
2023/05/28 06:40:26;;;;;;;;;;;;;;;19.32;46.20;100931.34;4963323;28;6869;-73
2023/05/28 06:42:51;;;;;;;;;;;;;;;19.39;46.69;100930.59;4967309;28;6946;-74
2023/05/28 06:45:18;;;;;;;;;;;;;;;19.46;46.41;100924.69;4988428;28;6779;-73
2023/05/28 06:47:45;;;;;;;;;;;;;;;19.59;47.00;100927.50;4959376;28;6788;-74
2023/05/28 06:50:11;;;;;;;;;;;;;;;19.70;46.48;100920.78;4962616;28;7164;-74
2023/05/28 06:52:36;;;;;;;;;;;;;;;19.84;46.34;100929.72;4991362;28;7121;-73
2023/05/28 06:55:02;;;;;;;;;;;;;;;19.96;46.14;100934.31;4983802;28;7260;-73
2023/05/28 06:57:28;;;;;;;;;;;;;;;20.08;46.29;100941.44;4956515;28;7048;-74
2023/05/28 06:59:53;;;;;;;;;;;;;;;20.20;46.32;100942.53;4957737;28;6780;-74
2023/05/28 07:02:19;;;;;;;;;;;;;;;20.27;46.06;100939.16;4967365;28;7095;-73
2023/05/28 07:04:45;;;;;;;;;;;;;;;20.43;46.54;100936.81;4984802;28;6784;-74
2023/05/28 07:07:10;;;;;;;;;;;;;;;20.75;47.09;100939.00;4954688;28;7873;-74
2023/05/28 07:09:36;;;;;;;;;;;;;;;21.12;46.92;100934.34;4988585;28;6848;-74
2023/05/28 07:12:02;;;;;;;;;;;;;;;21.53;46.48;100943.53;4958573;28;6859;-74
2023/05/28 07:14:28;;;;;;;;;;;;;;;21.94;46.22;100947.47;4958617;28;7263;-74
2023/05/28 07:16:54;;;;;;;;;;;;;;;22.32;45.65;100935.59;4959615;28;6772;-73
2023/05/28 07:19:19;;;;;;;;;;;;;;;22.71;45.54;100933.31;4959372;28;6768;-73
2023/05/28 07:21:46;;;;;;;;;;;;;;;23.08;44.65;100932.63;4961515;28;7110;-75
2023/05/28 07:24:12;;;;;;;;;;;;;;;23.44;43.71;100933.66;4988742;28;7463;-74
2023/05/28 07:26:37;;;;;;;;;;;;;;;23.79;42.66;100934.63;4956284;28;7068;-73
2023/05/28 07:29:03;;;;;;;;;;;;;;;24.08;42.28;100937.28;4974613;28;6809;-74
2023/05/28 07:31:31;;;;;;;;;;;;;;;24.36;41.34;100932.03;4956419;28;7035;-74
2023/05/28 07:33:57;;;;;;;;;;;;;;;24.62;41.23;100931.13;4969179;28;6812;-74
2023/05/28 07:36:22;;;;;;;;;;;;;;;24.87;40.31;100943.34;4943977;28;8011;-73
2023/05/28 07:38:48;;;;;;;;;;;;;;;25.05;39.65;100942.41;4943206;28;8472;-73
2023/05/28 07:41:14;;;;;;;;;;;;;;;25.16;39.80;100934.50;4955255;28;6964;-74
2023/05/28 07:43:40;;;;;;;;;;;;;;;25.30;39.34;100937.94;4977622;28;7335;-74
2023/05/28 07:46:05;;;;;;;;;;;;;;;25.50;38.53;100939.63;4988954;28;7293;-74
2023/05/28 07:48:31;;;;;;;;;;;;;;;25.72;38.69;100945.59;4953673;28;7150;-74
2023/05/28 07:50:57;;;;;;;;;;;;;;;25.97;38.12;100944.53;4960302;28;7236;-74
2023/05/28 07:53:23;;;;;;;;;;;;;;;26.19;37.65;100934.75;4993247;28;7689;-74
2023/05/28 07:55:48;;;;;;;;;;;;;;;26.38;37.36;100935.50;4992596;28;6799;-74
2023/05/28 07:58:14;;;;;;;;;;;;;;;26.63;36.98;100935.25;4961772;28;6812;-74
2023/05/28 08:00:40;;;;;;;;;;;;;;;26.87;36.45;100928.84;4957249;28;6796;-74
2023/05/28 08:03:06;;;;;;;;;;;;;;;27.07;36.05;100927.75;4971930;28;7354;-74
2023/05/28 08:05:32;;;;;;;;;;;;;;;27.29;35.79;100931.00;4976887;28;7101;-74
2023/05/28 08:07:59;;;;;;;;;;;;;;;27.53;35.36;100938.56;4961105;28;7743;-74
2023/05/28 08:10:25;;;;;;;;;;;;;;;27.70;34.90;100930.44;4990543;28;6796;-74
2023/05/28 08:12:50;;;;;;;;;;;;;;;27.90;34.73;100926.63;4989576;28;6946;-74
2023/05/28 08:15:16;;;;;;;;;;;;;;;28.11;34.16;100925.41;4943480;28;6975;-74
2023/05/28 08:17:42;;;;;;;;;;;;;;;28.35;33.77;100929.41;4991281;28;7015;-74
2023/05/28 08:20:09;;;;;;;;;;;;;;;28.60;33.39;100920.19;4973316;28;7243;-74
2023/05/28 08:22:36;;;;;;;;;;;;;;;28.90;32.62;100921.38;4958716;28;6868;-74
2023/05/28 08:25:01;;;;;;;;;;;;;;;29.19;31.94;100914.63;4985644;28;7204;-74
2023/05/28 08:27:27;;;;;;;;;;;;;;;29.28;32.21;100910.91;4946062;28;8535;-75
2023/05/28 08:29:52;;;;;;;;;;;;;;;29.28;31.56;100913.53;4944279;28;7353;-74
2023/05/28 08:32:18;;;;;;;;;;;;;;;29.31;31.17;100908.22;4961872;28;6851;-74
2023/05/28 08:34:44;;;;;;;;;;;;;;;29.37;31.29;100899.28;4947493;28;7441;-75
2023/05/28 08:37:10;;;;;;;;;;;;;;;29.55;30.58;100899.78;4991494;28;7462;-75
2023/05/28 08:39:36;;;;;;;;;;;;;;;29.78;30.11;100894.81;4986652;28;7029;-75
2023/05/28 08:42:02;;;;;;;;;;;;;;;29.99;29.93;100900.47;4991061;28;6968;-75
2023/05/28 08:44:28;;;;;;;;;;;;;;;30.18;30.29;100900.03;4992318;28;6788;-74
2023/05/28 08:46:55;;;;;;;;;;;;;;;30.28;30.12;100896.22;4988022;28;6776;-74
2023/05/28 08:49:34;;;;;;;;;;;;;;;30.42;29.62;100889.69;4959591;28;7232;-74
2023/05/28 08:52:02;;;;;;;;;;;;;;;30.63;29.68;100889.09;4960198;28;6859;-74
2023/05/28 08:54:29;;;;;;;;;;;;;;;30.82;29.18;100893.91;4980975;28;7227;-75
2023/05/28 08:56:56;;;;;;;;;;;;;;;30.94;28.08;100889.16;4952163;28;7218;-74
2023/05/28 08:59:23;;;;;;;;;;;;;;;31.02;28.16;100882.72;4989291;28;6784;-74
2023/05/28 09:01:50;;;;;;;;;;;;;;;31.21;27.90;100876.00;4952563;28;6860;-75
2023/05/28 09:04:15;;;;;;;;;;;;;;;31.43;27.31;100877.09;4969727;28;7113;-74
2023/05/28 09:06:41;;;;;;;;;;;;;;;31.63;27.79;100878.22;4986985;28;6772;-75
2023/05/28 09:09:09;;;;;;;;;;;;;;;31.86;27.41;100873.94;4972264;28;7260;-74
2023/05/28 09:11:35;;;;;;;;;;;;;;;32.05;26.83;100875.97;4985550;28;6811;-74
2023/05/28 09:14:12;;;;;;;;;;;;;;;32.19;26.79;100873.72;4956000;28;6832;-74
2023/05/28 09:16:43;;;;;;;;;;;;;;;32.22;26.61;100868.28;4972791;28;7267;-75
2023/05/28 09:19:10;;;;;;;;;;;;;;;32.27;26.22;100874.31;4958520;28;6792;-74
2023/05/28 09:21:37;;;;;;;;;;;;;;;32.30;25.82;100872.47;4973050;28;7034;-74
2023/05/28 09:24:06;;;;;;;;;;;;;;;32.36;25.84;100873.13;4989503;28;6816;-75
2023/05/28 09:26:33;;;;;;;;;;;;;;;32.53;25.65;100874.31;4944863;28;7066;-75
2023/05/28 09:28:59;;;;;;;;;;;;;;;32.67;25.25;100869.34;4957247;28;6812;-74
2023/05/28 09:31:32;;;;;;;;;;;;;;;32.80;25.45;100860.94;4971040;28;8472;-74
2023/05/28 09:33:59;;;;;;;;;;;;;;;32.97;25.48;100861.16;4965884;28;7194;-74
2023/05/28 09:36:25;;;;;;;;;;;;;;;33.24;25.35;100860.16;4950034;28;7330;-74
2023/05/28 09:38:51;;;;;;;;;;;;;;;33.50;25.17;100859.09;4964822;28;7000;-75
2023/05/28 09:41:22;;;;;;;;;;;;;;;33.86;25.22;100854.97;4973360;28;6776;-75
2023/05/28 09:44:00;;;;;;;;;;;;;;;34.21;24.82;100849.94;4988849;28;7073;-75
2023/05/28 09:46:34;;;;;;;;;;;;;;;34.51;24.09;100845.94;4964635;28;6894;-75
2023/05/28 09:49:01;;;;;;;;;;;;;;;34.79;23.58;100836.69;4976723;28;7056;-75
2023/05/28 09:51:31;;;;;;;;;;;;;;;34.93;23.37;100835.19;4959359;28;6796;-75
2023/05/28 09:54:03;;;;;;;;;;;;;;;35.04;22.81;100839.06;4988770;28;6945;-75
2023/05/28 09:56:31;;;;;;;;;;;;;;;35.10;22.74;100842.38;4947667;28;7015;-74
2023/05/28 09:59:03;;;;;;;;;;;;;;;35.23;22.74;100854.16;4985959;28;6959;-75
2023/05/28 10:01:47;;;;;;;;;;;;;;;35.28;22.35;100840.63;4942880;28;6983;-74
2023/05/28 10:04:19;;;;;;;;;;;;;;;35.15;21.52;100841.22;4948855;28;6998;-75
2023/05/28 10:06:46;;;;;;;;;;;;;;;35.03;21.55;100842.66;4969894;28;8417;-75
2023/05/28 10:09:15;;;;;;;;;;;;;;;35.06;22.27;100846.13;4959199;28;6876;-75
2023/05/28 10:12:02;;;;;;;;;;;;;;;35.10;21.68;100837.06;4959155;28;7191;-74
2023/05/28 10:14:29;;;;;;;;;;;;;;;35.19;21.82;100841.94;4982366;28;6888;-74
2023/05/28 10:16:55;;;;;;;;;;;;;;;35.29;21.44;100843.22;4986660;28;7326;-75
2023/05/28 10:19:22;;;;;;;;;;;;;;;35.27;21.76;100842.44;4952502;28;6788;-75
2023/05/28 10:21:49;;;;;;;;;;;;;;;35.13;21.29;100847.56;4959313;28;6807;-75
2023/05/28 10:24:16;;;;;;;;;;;;;;;34.97;21.58;100842.97;4992938;28;7007;-75
2023/05/28 10:26:42;;;;;;;;;;;;;;;34.91;21.76;100848.56;4953413;28;6932;-74
2023/05/28 10:29:08;;;;;;;;;;;;;;;35.02;21.54;100848.06;4981986;28;6936;-75
2023/05/28 10:31:34;;;;;;;;;;;;;;;35.28;21.33;100845.94;4963976;28;6836;-74
2023/05/28 10:33:59;;;;;;;;;;;;;;;35.55;21.60;100854.41;4986596;28;6787;-74
2023/05/28 10:36:25;;;;;;;;;;;;;;;35.63;21.22;100855.81;4959960;28;6851;-75
2023/05/28 10:38:51;;;;;;;;;;;;;;;35.55;20.66;100850.84;4959382;28;6832;-74
2023/05/28 10:41:21;;;;;;;;;;;;;;;35.42;21.03;100850.59;4962440;28;7413;-74
2023/05/28 10:43:49;;;;;;;;;;;;;;;35.32;20.70;100850.19;4989143;28;7192;-74
2023/05/28 10:46:17;;;;;;;;;;;;;;;35.27;20.63;100850.44;4993290;28;6804;-74
2023/05/28 10:49:16;;;;;;;;;;;;;;;35.22;20.76;100851.59;4959470;28;6856;-74
2023/05/28 10:52:02;;;;;;;;;;;;;;;35.31;20.60;100846.66;4979154;28;8315;-74
2023/05/28 10:54:35;;;;;;;;;;;;;;;35.68;20.42;100853.78;4977767;28;6800;-74
2023/05/28 10:57:12;;;;;;;;;;;;;;;35.82;20.06;100845.91;4980122;28;7009;-74
2023/05/28 11:00:00;;;;;;;;;;;;;;;35.72;20.16;100844.66;4967386;28;7242;-74
2023/05/28 11:02:32;;;;;;;;;;;;;;;35.61;19.50;100852.34;4964162;28;6819;-74
2023/05/28 11:05:02;;;;;;;;;;;;;;;35.79;19.96;100839.91;4966156;28;6828;-74
2023/05/28 11:07:39;;;;;;;;;;;;;;;36.03;19.91;100848.44;4966288;28;6808;-74
2023/05/28 11:10:27;;;;;;;;;;;;;;;35.95;19.76;100847.97;4966074;28;6856;-74
2023/05/28 11:12:53;;;;;;;;;;;;;;;35.82;19.74;100843.25;4958574;28;7320;-74
2023/05/28 11:15:21;;;;;;;;;;;;;;;35.72;19.43;100839.34;4972630;28;7059;-74
2023/05/28 11:17:46;;;;;;;;;;;;;;;35.82;20.07;100843.25;4963990;28;6871;-74
2023/05/28 11:20:25;;;;;;;;;;;;;;;35.94;19.72;100838.25;4994312;28;6796;-74
2023/05/28 11:22:51;;;;;;;;;;;;;;;36.16;19.37;100837.13;4963075;28;6853;-74
2023/05/28 11:25:21;;;;;;;;;;;;;;;36.47;19.36;100827.47;4960437;28;6871;-74
2023/05/28 11:27:50;;;;;;;;;;;;;;;36.52;18.83;100844.94;4962123;28;6851;-74
2023/05/28 11:30:18;;;;;;;;;;;;;;;36.41;18.72;100837.53;4956913;28;6879;-74
2023/05/28 11:32:49;;;;;;;;;;;;;;;36.36;18.98;100842.25;4963035;28;6979;-74
2023/05/28 11:35:17;;;;;;;;;;;;;;;36.30;18.53;100829.25;4965886;28;7164;-75
2023/05/28 11:37:44;;;;;;;;;;;;;;;36.18;19.11;100836.13;4962400;28;6792;-75
2023/05/28 11:40:13;;;;;;;;;;;;;;;35.96;18.53;100826.53;4952226;28;7075;-74
2023/05/28 11:42:41;;;;;;;;;;;;;;;35.82;19.20;100832.59;4984933;28;7130;-75
2023/05/28 11:45:09;;;;;;;;;;;;;;;35.99;19.30;100830.84;4962420;28;7205;-74
2023/05/28 11:47:36;;;;;;;;;;;;;;;36.07;18.49;100834.00;4943387;28;7006;-74
2023/05/28 11:50:12;;;;;;;;;;;;;;;36.07;18.68;100828.69;4965826;28;7050;-74
2023/05/28 11:52:37;;;;;;;;;;;;;;;36.22;18.90;100818.16;4964011;28;6828;-74
2023/05/28 11:55:03;;;;;;;;;;;;;;;36.53;19.04;100827.13;4980763;28;8566;-74
2023/05/28 11:57:33;;;;;;;;;;;;;;;36.62;18.37;100817.78;4995435;28;6784;-75
2023/05/28 12:00:05;;;;;;;;;;;;;;;36.40;18.46;100825.13;4975459;28;6784;-74
2023/05/28 12:02:31;;;;;;;;;;;;;;;35.99;18.11;100836.19;4985681;28;6807;-75
2023/05/28 12:05:02;;;;;;;;;;;;;;;35.69;18.56;100823.50;4953479;28;6768;-74
2023/05/28 12:07:37;;;;;;;;;;;;;;;35.55;18.48;100821.53;4988883;28;6808;-74
2023/05/28 12:10:12;;;;;;;;;;;;;;;35.55;17.99;100827.75;4987245;28;7041;-74
2023/05/28 12:12:51;;;;;;;;;;;;;;;35.49;18.54;100822.69;4955891;28;6788;-74
2023/05/28 12:15:21;;;;;;;;;;;;;;;35.39;18.38;100827.63;4953764;28;7136;-74
2023/05/28 12:18:00;;;;;;;;;;;;;;;35.38;18.65;100815.25;4974424;28;6796;-74
2023/05/28 12:20:39;;;;;;;;;;;;;;;35.47;18.75;100819.25;4959144;28;6811;-71
2023/05/28 12:23:11;;;;;;;;;;;;;;;35.51;18.59;100812.81;4958156;28;7011;-72
2023/05/28 12:25:43;;;;;;;;;;;;;;;35.61;18.41;100807.06;4957587;28;6864;-71
2023/05/28 12:28:15;;;;;;;;;;;;;;;35.56;18.85;100818.81;4955445;28;6792;-72
2023/05/28 12:30:42;;;;;;;;;;;;;;;35.33;18.73;100816.41;4955837;28;7257;-72
2023/05/28 12:33:10;;;;;;;;;;;;;;;35.10;18.73;100815.75;4949941;28;7029;-72
2023/05/28 12:35:36;;;;;;;;;;;;;;;34.89;19.08;100810.50;4952051;28;6788;-72
2023/05/28 12:38:02;;;;;;;;;;;;;;;34.76;19.30;100804.91;4989465;28;6867;-72
2023/05/28 12:40:28;;;;;;;;;;;;;;;34.67;19.73;100811.53;4960412;28;7300;-72
2023/05/28 12:42:53;;;;;;;;;;;;;;;34.53;19.44;100809.53;4970520;28;6895;-72
2023/05/28 12:45:19;;;;;;;;;;;;;;;34.32;19.98;100808.69;4990041;28;6788;-72
2023/05/28 12:47:45;;;;;;;;;;;;;;;34.25;19.75;100807.22;4953169;28;6986;-72